Time;durP1;ratioP1;P1;durP2;ratioP2;P2;SDS_P1;SDS_P2;PMS_P1;PMS_P2;Temp;Humidity;BMP_temperature;BMP_pressure;BME280_temperature;BME280_humidity;BME280_pressure;Samples;Min_cycle;Max_cycle;Signal;HPM_P1;HPM_P2
2021/11/28 00:00:46;;;;;;;3.10;1.83;;;;;;;-2.82;75.83;99969.31;4859877;29;20055;-72
2021/11/28 00:03:14;;;;;;;2.53;1.70;;;;;;;-2.63;76.14;99991.59;4859831;29;20077;-72
2021/11/28 00:05:41;;;;;;;1.98;1.60;;;;;;;-2.67;75.91;99982.28;4860986;29;20059;-70
2021/11/28 00:08:15;;;;;;;3.63;2.22;;;;;;;-2.82;76.47;99965.88;4864836;29;20132;-74
2021/11/28 00:13:09;;;;;;;2.17;1.80;;;;;;;-2.84;76.59;99972.94;4865458;29;20120;-70
2021/11/28 00:15:35;;;;;;;2.35;2.20;;;;;;;-2.84;77.12;99979.00;4869696;29;20033;-69
2021/11/28 00:18:01;;;;;;;1.85;1.75;;;;;;;-2.89;76.68;99988.88;4865241;29;20071;-74
2021/11/28 00:20:27;;;;;;;1.87;1.70;;;;;;;-2.81;76.97;99993.59;4843130;29;20078;-75
2021/11/28 00:22:53;;;;;;;2.73;2.30;;;;;;;-2.91;76.99;99982.06;4859339;29;20042;-73
2021/11/28 00:25:21;;;;;;;2.60;2.40;;;;;;;-2.93;77.28;99963.91;4843144;29;20045;-74
2021/11/28 00:27:49;;;;;;;2.20;2.00;;;;;;;-3.04;76.54;99944.69;4859651;29;20041;-73
2021/11/28 00:30:24;;;;;;;2.30;1.80;;;;;;;-3.03;76.70;99939.41;4859517;29;20122;-71
2021/11/28 00:32:51;;;;;;;1.75;1.65;;;;;;;-2.98;76.58;99965.16;4843498;29;20056;-72
2021/11/28 00:35:17;;;;;;;2.08;1.80;;;;;;;-2.93;76.74;99963.91;4859782;29;20528;-71
2021/11/28 00:37:42;;;;;;;2.00;1.90;;;;;;;-3.30;76.14;99909.88;4849666;29;20045;-74
2021/11/28 00:40:08;;;;;;;2.20;2.00;;;;;;;-2.99;76.27;99959.09;4853099;29;20209;-70
2021/11/28 00:42:34;;;;;;;2.28;2.08;;;;;;;-2.85;77.13;99969.50;4863695;29;20128;-73
2021/11/28 00:45:00;;;;;;;2.10;2.00;;;;;;;-2.90;76.40;99971.53;4863150;29;20127;-71
2021/11/28 00:47:25;;;;;;;2.17;2.00;;;;;;;-2.89;76.24;99973.25;4831470;29;20094;-72
2021/11/28 00:50:42;;;;;;;2.33;2.17;;;;;;;-3.04;76.31;99945.53;4846956;29;20064;-70
2021/11/28 00:52:40;;;;;;;1.73;1.63;;;;;;;-2.94;76.91;99957.03;4855919;29;20041;-73
2021/11/28 00:55:08;;;;;;;3.70;2.22;;;;;;;-2.93;76.35;99963.91;4846292;29;20045;-72
2021/11/28 00:57:35;;;;;;;1.95;1.63;;;;;;;-2.92;75.76;99954.34;4846408;29;20046;-72
2021/11/28 01:00:06;;;;;;;2.70;2.13;;;;;;;-2.88;75.57;99958.44;4830862;29;20117;-72
2021/11/28 01:02:32;;;;;;;2.50;2.30;;;;;;;-2.99;75.83;99953.06;4846172;29;20506;-72
2021/11/28 01:04:58;;;;;;;2.35;1.95;;;;;;;-2.81;76.03;99968.38;4846392;29;20061;-73
2021/11/28 01:07:26;;;;;;;3.70;1.77;;;;;;;-2.78;76.02;99971.72;4846266;29;20049;-72
2021/11/28 01:09:53;;;;;;;2.63;1.63;;;;;;;-2.75;75.66;99963.69;4862737;29;20051;-71
2021/11/28 01:12:20;;;;;;;2.17;1.98;;;;;;;-2.74;75.43;99961.00;4862544;29;20510;-71
2021/11/28 01:14:45;;;;;;;2.15;1.95;;;;;;;-2.87;74.95;99952.31;4845796;29;20069;-72
2021/11/28 01:17:11;;;;;;;2.17;1.93;;;;;;;-2.76;75.01;99968.09;4862347;29;20450;-73
2021/11/28 01:19:36;;;;;;;1.93;1.80;;;;;;;-2.74;75.15;99960.16;4862678;29;20181;-72
2021/11/28 01:22:08;;;;;;;2.20;2.03;;;;;;;-3.03;75.05;99930.75;4862556;29;20136;-72
2021/11/28 01:24:35;;;;;;;1.73;1.60;;;;;;;-2.90;74.95;99947.25;4862341;29;20034;-73
2021/11/28 01:27:04;;;;;;;1.50;1.40;;;;;;;-2.87;74.49;99952.31;4845846;29;20038;-73
2021/11/28 01:29:30;;;;;;;1.77;1.67;;;;;;;-2.89;74.51;99943.72;4862321;29;20069;-74
2021/11/28 01:31:57;;;;;;;2.00;1.80;;;;;;;-2.79;74.44;99967.44;4862205;29;20486;-70
2021/11/28 01:34:22;;;;;;;4.22;2.13;;;;;;;-2.81;74.18;99962.34;4862302;29;20423;-72
2021/11/28 01:36:48;;;;;;;1.50;1.40;;;;;;;-3.08;73.97;99923.22;4845768;29;20046;-73
2021/11/28 01:39:14;;;;;;;1.60;1.50;;;;;;;-2.90;74.43;99953.31;4845558;29;20410;-73
2021/11/28 01:41:39;;;;;;;2.20;1.60;;;;;;;-2.91;74.86;99956.84;4862246;29;20501;-72
2021/11/28 01:44:06;;;;;;;2.27;2.07;;;;;;;-2.81;74.65;99946.69;4845319;29;20490;-72
2021/11/28 01:46:32;;;;;;;1.60;1.50;;;;;;;-2.78;74.32;99953.47;4862162;29;20048;-71
2021/11/28 01:48:59;;;;;;;2.30;2.10;;;;;;;-2.79;74.65;99947.44;4861804;29;20047;-71
2021/11/28 01:51:25;;;;;;;2.30;1.75;;;;;;;-2.82;74.28;99951.06;4861886;29;20045;-71
2021/11/28 01:53:52;;;;;;;3.27;2.00;;;;;;;-2.77;74.37;99962.97;4861943;29;20042;-71
2021/11/28 01:56:20;;;;;;;2.05;1.92;;;;;;;-2.84;74.21;99947.72;4829793;29;20417;-73
2021/11/28 01:58:46;;;;;;;2.13;1.90;;;;;;;-2.83;74.12;99967.63;4845117;29;20045;-69
2021/11/28 02:01:15;;;;;;;2.30;1.93;;;;;;;-2.93;74.64;99948.28;4861738;29;20407;-71
2021/11/28 02:03:42;;;;;;;1.83;1.65;;;;;;;-2.91;74.61;99950.78;4861964;29;20080;-73
2021/11/28 02:06:11;;;;;;;2.00;1.70;;;;;;;-3.12;74.38;99930.41;4861784;29;20037;-70
2021/11/28 02:08:37;;;;;;;2.00;1.50;;;;;;;-2.84;75.00;99968.56;4861915;29;20049;-74
2021/11/28 02:11:03;;;;;;;1.83;1.73;;;;;;;-2.91;74.70;99940.38;4845113;29;20113;-70
2021/11/28 02:13:48;;;;;;;3.67;1.73;;;;;;;-2.97;74.50;99927.75;4836501;29;20041;-73
2021/11/28 02:16:14;;;;;;;1.80;1.70;;;;;;;-2.83;74.63;99959.81;4846731;29;20049;-69
2021/11/28 02:18:41;;;;;;;1.97;1.87;;;;;;;-2.79;75.05;99949.19;4865600;29;20068;-71
2021/11/28 02:21:08;;;;;;;5.03;1.60;;;;;;;-2.89;74.69;99939.38;4865252;29;20286;-71
2021/11/28 02:23:34;;;;;;;2.70;1.67;;;;;;;-2.75;74.55;99961.09;4831354;29;20105;-70
2021/11/28 02:26:04;;;;;;;3.42;2.22;;;;;;;-2.90;75.13;99937.66;4846276;29;20438;-71
2021/11/28 02:28:31;;;;;;;1.83;1.73;;;;;;;-2.98;74.81;99933.88;4831993;29;20069;-72
2021/11/28 02:30:57;;;;;;;3.63;1.63;;;;;;;-2.79;74.75;99963.06;4862824;29;20083;-71
2021/11/28 02:33:22;;;;;;;5.23;2.43;;;;;;;-2.87;75.21;99958.34;4865347;29;20046;-71
2021/11/28 02:35:48;;;;;;;2.37;1.80;;;;;;;-2.93;75.27;99943.06;4864041;29;20554;-73
2021/11/28 02:38:14;;;;;;;2.67;1.90;;;;;;;-2.74;75.14;99957.56;4861903;29;20048;-69
2021/11/28 02:40:42;;;;;;;3.67;1.77;;;;;;;-2.89;75.10;99933.28;4862280;29;20037;-70
2021/11/28 02:43:08;;;;;;;2.00;1.73;;;;;;;-2.86;74.95;99943.56;4861831;29;20037;-73
2021/11/28 02:45:34;;;;;;;1.77;1.67;;;;;;;-2.96;74.88;99925.03;4861897;29;20048;-73
2021/11/28 02:48:03;;;;;;;2.65;2.13;;;;;;;-2.93;75.14;99948.28;4861653;29;20041;-70
2021/11/28 02:50:29;;;;;;;6.57;1.88;;;;;;;-2.83;75.25;99985.88;4845128;29;20056;-71
2021/11/28 02:52:57;;;;;;;3.70;2.27;;;;;;;-2.81;75.09;99970.16;4861896;29;20053;-73
2021/11/28 02:55:29;;;;;;;5.22;1.98;;;;;;;-2.82;75.29;99997.97;4863165;29;20557;-70
2021/11/28 02:57:56;;;;;;;5.00;2.25;;;;;;;-2.92;74.78;99972.56;4846298;29;20046;-70
2021/11/28 03:00:30;;;;;;;2.30;2.10;;;;;;;-2.92;75.12;99981.22;4845053;29;20057;-69
2021/11/28 03:02:56;;;;;;;2.65;2.30;;;;;;;-2.81;74.77;99973.59;4845510;29;20528;-70
2021/11/28 03:05:21;;;;;;;2.97;1.70;;;;;;;-2.87;74.96;99960.13;4861331;29;20045;-71
2021/11/28 03:07:47;;;;;;;4.00;3.60;;;;;;;-2.92;75.23;99939.53;4844264;29;20470;-72
2021/11/28 03:10:31;;;;;;;5.57;2.33;;;;;;;-2.79;74.90;99959.63;4860884;29;20042;-72
2021/11/28 03:12:57;;;;;;;4.13;2.95;;;;;;;-2.90;75.05;99926.41;4860636;29;20042;-71
2021/11/28 03:15:24;;;;;;;1.63;1.53;;;;;;;-2.81;75.08;99950.13;4860909;29;20045;-71
2021/11/28 03:17:50;;;;;;;1.92;1.83;;;;;;;-2.78;74.70;99943.06;4861074;29;20037;-71
2021/11/28 03:20:16;;;;;;;1.90;1.80;;;;;;;-2.79;73.98;99939.63;4845797;29;20048;-70
2021/11/28 03:22:50;;;;;;;2.37;2.17;;;;;;;-2.76;74.57;99930.75;4860155;29;20414;-70
2021/11/28 03:25:18;;;;;;;3.42;2.17;;;;;;;-2.69;74.59;99945.06;4844244;29;20052;-69
2021/11/28 03:27:44;;;;;;;2.58;2.28;;;;;;;-2.60;74.57;99950.53;4859050;29;20073;-70
2021/11/28 03:30:12;;;;;;;4.10;2.35;;;;;;;-2.65;74.73;99957.78;4860407;29;20044;-72
2021/11/28 03:32:38;;;;;;;4.07;1.95;;;;;;;-2.69;74.12;99945.06;4843922;29;20057;-69
2021/11/28 03:35:04;;;;;;;3.77;1.90;;;;;;;-2.73;74.47;99933.16;4828699;29;20490;-71
2021/11/28 03:37:30;;;;;;;3.45;1.73;;;;;;;-2.80;74.74;99927.53;4860209;29;20417;-70
2021/11/28 03:39:58;;;;;;;6.70;1.92;;;;;;;-2.96;74.29;99900.75;4843442;29;20520;-72
2021/11/28 03:42:24;;;;;;;3.42;2.13;;;;;;;-2.85;74.66;99925.22;4860322;29;20045;-73
2021/11/28 03:44:50;;;;;;;3.15;1.70;;;;;;;-3.13;74.54;99878.41;4859963;29;20493;-72
2021/11/28 03:47:18;;;;;;;5.37;2.00;;;;;;;-2.83;74.02;99920.75;4860279;29;20029;-70
2021/11/28 03:49:44;;;;;;;2.08;1.98;;;;;;;-2.64;74.09;99953.41;4828544;29;20148;-71
2021/11/28 03:52:10;;;;;;;1.90;1.80;;;;;;;-2.60;74.17;99936.66;4859996;29;20046;-72
2021/11/28 03:54:36;;;;;;;2.73;1.83;;;;;;;-2.69;73.66;99922.44;4843758;29;20038;-69
2021/11/28 03:57:04;;;;;;;2.28;1.80;;;;;;;-2.61;73.37;99948.84;4860156;29;20052;-72
2021/11/28 03:59:29;;;;;;;2.70;1.90;;;;;;;-2.74;73.49;99910.66;4860806;29;20045;-71
2021/11/28 04:01:57;;;;;;;1.80;1.70;;;;;;;-2.78;73.26;99915.22;4861270;29;20091;-72
2021/11/28 04:04:22;;;;;;;1.77;1.50;;;;;;;-2.75;73.00;99907.22;4861568;29;20049;-71
2021/11/28 04:06:48;;;;;;;1.70;1.60;;;;;;;-3.18;72.57;99838.78;4861633;29;20176;-71
2021/11/28 04:09:14;;;;;;;1.53;1.43;;;;;;;-2.64;72.38;99927.34;4861568;29;20092;-69
2021/11/28 04:11:40;;;;;;;1.80;1.70;;;;;;;-2.64;73.43;99919.53;4861139;29;20045;-73
2021/11/28 04:14:06;;;;;;;2.23;1.80;;;;;;;-2.73;73.26;99914.94;4860842;29;20561;-72
2021/11/28 04:16:32;;;;;;;2.27;1.60;;;;;;;-2.63;73.39;99923.81;4860242;29;20417;-70
2021/11/28 04:18:59;;;;;;;2.42;2.28;;;;;;;-2.85;73.04;99886.13;4860150;29;20124;-72
2021/11/28 04:21:26;;;;;;;1.60;1.50;;;;;;;-2.68;73.18;99912.84;4860349;29;20038;-70
2021/11/28 04:23:53;;;;;;;3.50;2.08;;;;;;;-2.79;72.95;99897.91;4861466;29;20048;-70
2021/11/28 04:26:19;;;;;;;3.72;1.40;;;;;;;-2.74;73.68;99887.19;4862297;29;20041;-72
2021/11/28 04:28:45;;;;;;;2.00;1.80;;;;;;;-2.56;73.49;99923.34;4844696;29;20045;-72
2021/11/28 04:31:10;;;;;;;2.10;1.90;;;;;;;-2.51;73.64;99928.25;4861694;29;20059;-71
2021/11/28 04:33:36;;;;;;;1.97;1.63;;;;;;;-2.56;73.89;99930.31;4860450;29;20038;-72
2021/11/28 04:36:02;;;;;;;2.60;1.60;;;;;;;-2.76;74.22;99891.66;4843320;29;20141;-72
2021/11/28 04:38:28;;;;;;;2.60;1.70;;;;;;;-2.62;74.24;99909.84;4843508;29;20486;-73
2021/11/28 04:40:53;;;;;;;2.10;1.90;;;;;;;-2.76;74.60;99886.47;4842993;29;20125;-71
2021/11/28 04:43:19;;;;;;;2.63;1.80;;;;;;;-2.99;75.11;99870.53;4859395;29;20049;-72
2021/11/28 04:45:44;;;;;;;4.33;2.37;;;;;;;-2.67;75.73;99935.38;4859452;29;20045;-71
2021/11/28 04:48:10;;;;;;;4.33;1.67;;;;;;;-2.71;75.75;99926.09;4859377;29;20506;-72
2021/11/28 04:50:37;;;;;;;1.98;1.60;;;;;;;-2.60;75.79;99928.84;4859242;29;20120;-73
2021/11/28 04:53:07;;;;;;;2.65;1.80;;;;;;;-2.65;76.44;99929.13;4843228;29;20049;-71
2021/11/28 04:55:32;;;;;;;2.60;1.83;;;;;;;-2.59;75.96;99943.56;4859403;29;20462;-71
2021/11/28 04:57:58;;;;;;;2.27;1.50;;;;;;;-2.78;76.36;99927.41;4859239;29;20038;-70
2021/11/28 05:00:25;;;;;;;6.53;2.07;;;;;;;-2.70;76.48;99928.59;4858160;29;20054;-72
2021/11/28 05:02:55;;;;;;;4.55;1.70;;;;;;;-2.99;76.13;99882.72;4850438;29;20045;-70
2021/11/28 05:05:21;;;;;;;2.97;2.03;;;;;;;-2.81;76.80;99924.06;4850473;29;20076;-70
2021/11/28 05:07:47;;;;;;;4.10;2.03;;;;;;;-2.66;76.53;99963.09;4852621;29;20042;-70
2021/11/28 05:10:12;;;;;;;2.30;1.67;;;;;;;-2.71;76.62;99942.56;4845285;29;20034;-70
2021/11/28 05:12:39;;;;;;;2.00;1.80;;;;;;;-2.82;76.87;99924.19;4859307;29;20494;-71
2021/11/28 05:15:06;;;;;;;2.60;1.70;;;;;;;-2.70;75.79;99956.41;4859348;29;20517;-71
2021/11/28 05:17:32;;;;;;;4.15;1.92;;;;;;;-2.63;76.63;99949.88;4859110;29;20038;-70
2021/11/28 05:19:58;;;;;;;1.60;1.50;;;;;;;-2.72;75.63;99934.84;4859259;29;20046;-70
2021/11/28 05:22:24;;;;;;;2.17;1.80;;;;;;;-2.53;76.09;99971.84;4859403;29;20041;-73
2021/11/28 05:24:51;;;;;;;2.20;1.88;;;;;;;-2.54;75.34;99977.97;4830725;29;20662;-70
2021/11/28 05:27:17;;;;;;;3.38;1.52;;;;;;;-2.61;75.06;99950.59;4852343;29;20045;-70
2021/11/28 05:29:44;;;;;;;2.10;1.88;;;;;;;-2.63;75.57;99949.88;4868113;29;20045;-70
2021/11/28 05:32:09;;;;;;;5.43;2.20;;;;;;;-2.51;74.66;99975.16;4868278;29;20049;-72
2021/11/28 05:34:35;;;;;;;1.93;1.83;;;;;;;-2.64;74.75;99953.41;4862557;29;20050;-71
2021/11/28 05:37:01;;;;;;;2.57;1.70;;;;;;;-2.70;74.81;99932.97;4846157;29;20033;-73
2021/11/28 05:39:26;;;;;;;5.60;1.77;;;;;;;-2.46;74.98;99985.31;4848603;29;20646;-73
2021/11/28 05:41:52;;;;;;;1.80;1.70;;;;;;;-2.45;74.43;99985.19;4864646;29;20393;-71
2021/11/28 05:44:18;;;;;;;4.40;1.57;;;;;;;-2.49;75.39;99983.72;4866049;29;20041;-70
2021/11/28 05:46:43;;;;;;;4.13;1.70;;;;;;;-2.81;75.65;99937.09;4864652;29;20124;-72
2021/11/28 05:49:09;;;;;;;1.80;1.60;;;;;;;-2.60;75.53;99975.78;4865257;29;20052;-69
2021/11/28 05:51:34;;;;;;;1.67;1.57;;;;;;;-2.57;76.04;99983.41;4865560;29;20467;-71
2021/11/28 05:54:01;;;;;;;1.90;1.70;;;;;;;-2.61;76.43;99974.91;4866641;29;20053;-71
2021/11/28 05:56:30;;;;;;;3.57;1.50;;;;;;;-2.62;75.89;99972.41;4832479;29;20340;-70
2021/11/28 05:58:57;;;;;;;5.30;1.70;;;;;;;-2.68;76.24;99972.78;4867698;29;20374;-69
2021/11/28 06:01:23;;;;;;;1.70;1.60;;;;;;;-2.59;76.46;99985.25;4867085;29;20064;-68
2021/11/28 06:03:49;;;;;;;5.20;1.93;;;;;;;-2.68;76.16;99978.84;4864790;29;20033;-70
2021/11/28 06:06:15;;;;;;;2.97;1.50;;;;;;;-2.78;76.71;99959.53;4878928;29;20120;-70
2021/11/28 06:08:41;;;;;;;8.13;1.67;;;;;;;-2.77;76.98;99974.22;4851679;29;20068;-71
2021/11/28 06:11:07;;;;;;;2.40;1.88;;;;;;;-2.91;76.32;99946.41;4868346;29;20090;-70
2021/11/28 06:13:33;;;;;;;21.60;3.00;;;;;;;-2.66;76.51;100012.63;4834715;29;20043;-70
2021/11/28 06:15:59;;;;;;;4.13;1.63;;;;;;;-2.78;77.12;99979.53;4865566;29;20045;-72
2021/11/28 06:18:24;;;;;;;1.70;1.60;;;;;;;-2.78;76.60;99989.97;4849957;29;20041;-70
2021/11/28 06:20:50;;;;;;;1.70;1.60;;;;;;;-2.74;76.75;99994.88;4835146;29;20042;-72
2021/11/28 06:23:16;;;;;;;1.70;1.60;;;;;;;-2.68;76.18;100004.06;4829784;29;20064;-67
2021/11/28 06:25:42;;;;;;;4.63;1.73;;;;;;;-2.66;76.85;100003.03;4861300;29;20084;-69
2021/11/28 06:28:08;;;;;;;2.80;1.50;;;;;;;-2.61;77.31;100013.16;4861405;29;20045;-70
2021/11/28 06:30:34;;;;;;;2.15;1.70;;;;;;;-2.58;77.28;100013.00;4861325;29;20044;-69
2021/11/28 06:33:01;;;;;;;1.95;1.60;;;;;;;-2.70;77.21;100000.72;4844514;29;20039;-68
2021/11/28 06:35:27;;;;;;;1.77;1.40;;;;;;;-2.75;77.29;100001.03;4861396;29;20114;-68
2021/11/28 06:37:53;;;;;;;1.60;1.50;;;;;;;-2.76;77.07;99991.53;4864660;29;20617;-69
2021/11/28 06:40:19;;;;;;;2.50;1.63;;;;;;;-2.82;77.49;99984.09;4846431;29;20105;-67
2021/11/28 06:42:45;;;;;;;1.60;1.50;;;;;;;-2.66;78.04;100015.25;4845081;29;20057;-71
2021/11/28 06:45:12;;;;;;;1.70;1.60;;;;;;;-2.69;77.53;100005.84;4861242;29;20037;-69
2021/11/28 06:47:38;;;;;;;2.35;1.98;;;;;;;-2.65;77.86;100019.50;4861092;29;20274;-68
2021/11/28 06:50:04;;;;;;;3.95;2.17;;;;;;;-2.64;77.91;100015.97;4860571;29;20049;-69
2021/11/28 06:52:30;;;;;;;2.80;2.28;;;;;;;-2.50;78.40;100029.00;4859533;29;20117;-69
2021/11/28 06:54:56;;;;;;;2.55;2.28;;;;;;;-2.55;77.93;100024.06;4860213;29;20041;-68
2021/11/28 06:57:22;;;;;;;3.20;2.50;;;;;;;-2.67;78.27;100009.19;4859474;29;20506;-69
2021/11/28 06:59:47;;;;;;;3.33;2.27;;;;;;;-2.83;78.17;99998.06;4859626;29;20065;-68
2021/11/28 07:02:14;;;;;;;2.90;2.30;;;;;;;-2.63;78.42;100041.09;4859262;29;20080;-70
2021/11/28 07:04:42;;;;;;;3.03;2.22;;;;;;;-2.74;78.09;100033.13;4860087;29;20081;-69
2021/11/28 07:07:08;;;;;;;3.15;2.40;;;;;;;-2.77;78.46;100035.94;4860081;29;20048;-70
2021/11/28 07:09:33;;;;;;;3.33;2.38;;;;;;;-2.73;79.05;100040.03;4860659;29;20506;-69
2021/11/28 07:11:59;;;;;;;2.10;1.90;;;;;;;-2.75;78.81;100026.25;4860484;29;20049;-64
2021/11/28 07:14:25;;;;;;;3.53;2.00;;;;;;;-2.71;78.10;100059.00;4860473;29;20124;-65
2021/11/28 07:16:51;;;;;;;2.30;1.97;;;;;;;-2.76;77.97;100048.88;4843374;29;20041;-69
2021/11/28 07:19:17;;;;;;;2.60;2.17;;;;;;;-2.86;78.63;100032.16;4860408;29;20048;-62
2021/11/28 07:21:42;;;;;;;1.80;1.70;;;;;;;-2.83;78.11;100040.59;4860299;29;20033;-70
2021/11/28 07:24:08;;;;;;;2.53;2.30;;;;;;;-2.74;78.71;100044.41;4861297;29;20033;-62
2021/11/28 07:26:34;;;;;;;2.15;1.83;;;;;;;-2.65;78.81;100050.78;4860635;29;20072;-64
2021/11/28 07:29:00;;;;;;;2.23;1.90;;;;;;;-2.89;78.95;100017.53;4860500;29;20069;-65
2021/11/28 07:31:25;;;;;;;5.30;2.93;;;;;;;-2.69;78.48;100050.16;4860060;29;20557;-69
2021/11/28 07:33:51;;;;;;;4.47;2.07;;;;;;;-2.74;78.44;100046.16;4860135;29;20573;-65
2021/11/28 07:36:17;;;;;;;3.87;2.57;;;;;;;-2.71;78.35;100051.19;4859781;29;20124;-62
2021/11/28 07:38:44;;;;;;;3.85;2.15;;;;;;;-2.75;78.54;100045.34;4860169;29;20040;-62
2021/11/28 07:41:10;;;;;;;3.13;2.03;;;;;;;-2.85;78.45;100039.88;4859800;29;20167;-62
2021/11/28 07:43:37;;;;;;;4.20;1.98;;;;;;;-3.09;78.74;99993.66;4860258;29;20081;-61
2021/11/28 07:46:03;;;;;;;2.85;1.80;;;;;;;-2.70;79.05;100060.69;4861054;29;20053;-62
2021/11/28 07:48:29;;;;;;;3.45;1.90;;;;;;;-2.66;79.96;100064.75;4843408;29;20063;-64
2021/11/28 07:50:55;;;;;;;2.15;1.88;;;;;;;-3.10;80.32;99984.16;4843036;29;20076;-64
2021/11/28 07:53:20;;;;;;;2.10;1.70;;;;;;;-2.70;79.12;100052.84;4859772;29;20728;-63
2021/11/28 07:55:47;;;;;;;2.70;1.95;;;;;;;-2.91;79.46;99995.94;4859637;29;20072;-67
2021/11/28 07:58:13;;;;;;;2.90;2.13;;;;;;;-2.62;78.58;100045.38;4859514;29;20502;-65
2021/11/28 08:00:41;;;;;;;3.13;2.83;;;;;;;-2.61;78.32;100062.69;4838191;29;20126;-65
2021/11/28 08:03:09;;;;;;;2.35;1.98;;;;;;;-2.65;78.35;100066.44;4840836;29;20091;-65
2021/11/28 08:05:35;;;;;;;2.20;2.00;;;;;;;-3.05;78.97;99995.13;4840925;29;20092;-62
2021/11/28 08:08:03;;;;;;;2.42;2.22;;;;;;;-2.63;79.12;100056.75;4841120;29;20049;-63
2021/11/28 08:10:30;;;;;;;1.70;1.60;;;;;;;-2.67;79.57;100044.84;4824927;29;20077;-65
2021/11/28 08:12:56;;;;;;;3.03;2.72;;;;;;;-2.69;79.04;100025.84;4840906;29;20046;-63
2021/11/28 08:15:21;;;;;;;2.53;2.33;;;;;;;-2.56;77.98;100045.03;4840777;29;20099;-62
2021/11/28 08:17:48;;;;;;;3.70;1.80;;;;;;;-2.64;78.20;100021.19;4841113;29;20045;-65
2021/11/28 08:20:16;;;;;;;2.40;2.20;;;;;;;-2.61;77.70;100042.69;4841290;29;20042;-62
2021/11/28 08:22:42;;;;;;;3.28;2.35;;;;;;;-2.53;77.72;100050.03;4825323;29;20094;-63
2021/11/28 08:25:10;;;;;;;5.47;2.43;;;;;;;-3.35;77.93;99935.34;4842623;29;20038;-63
2021/11/28 08:27:36;;;;;;;4.00;2.45;;;;;;;-2.68;78.04;100057.03;4842671;29;20041;-62
2021/11/28 08:30:10;;;;;;;2.33;2.07;;;;;;;-2.70;78.90;100050.25;4842630;29;20046;-63
2021/11/28 08:32:35;;;;;;;2.10;1.90;;;;;;;-2.73;79.11;100042.63;4841823;29;20041;-64
2021/11/28 08:35:01;;;;;;;5.10;2.03;;;;;;;-2.65;79.82;100059.44;4842104;29;20121;-64
2021/11/28 08:37:26;;;;;;;3.37;2.17;;;;;;;-2.74;79.08;100033.97;4842297;29;20387;-63
2021/11/28 08:39:52;;;;;;;2.43;2.07;;;;;;;-2.54;78.67;100050.97;4842577;29;20038;-62
2021/11/28 08:42:18;;;;;;;2.47;1.60;;;;;;;-2.62;78.68;100051.44;4841682;29;20517;-63
2021/11/28 08:44:43;;;;;;;2.97;2.40;;;;;;;-2.65;79.17;100042.97;4843549;29;20490;-65
2021/11/28 08:47:09;;;;;;;3.67;1.87;;;;;;;-2.63;80.05;100039.34;4843739;29;20044;-64
2021/11/28 08:49:35;;;;;;;2.80;2.00;;;;;;;-2.61;79.26;100044.44;4844029;29;20034;-64
2021/11/28 08:52:01;;;;;;;3.13;2.10;;;;;;;-2.53;80.01;100044.81;4843413;29;20076;-65
2021/11/28 08:54:30;;;;;;;2.47;2.00;;;;;;;-2.46;78.73;100055.69;4843416;29;20129;-64
2021/11/28 08:56:59;;;;;;;2.75;2.42;;;;;;;-2.44;78.13;100049.44;4842963;29;20514;-65
2021/11/28 08:59:26;;;;;;;2.47;2.28;;;;;;;-2.58;78.07;100028.66;4833682;29;20045;-64
2021/11/28 09:01:54;;;;;;;4.38;2.60;;;;;;;-2.42;78.16;100047.56;4866308;29;20065;-64
2021/11/28 09:04:21;;;;;;;2.40;2.17;;;;;;;-2.54;78.63;100027.50;4864520;29;20045;-63
2021/11/28 09:06:46;;;;;;;2.60;2.20;;;;;;;-2.41;78.72;100043.19;4854423;29;20092;-64
2021/11/28 09:09:12;;;;;;;4.87;4.03;;;;;;;-2.27;77.65;100053.59;4853932;29;20041;-66
2021/11/28 09:11:37;;;;;;;3.97;2.50;;;;;;;-2.32;77.72;100045.22;4864605;29;20422;-63
2021/11/28 09:14:04;;;;;;;3.37;2.57;;;;;;;-2.58;78.42;100000.81;4864341;29;20467;-65
2021/11/28 09:16:30;;;;;;;4.47;2.95;;;;;;;-2.25;78.52;100065.59;4847989;29;20045;-65
2021/11/28 09:19:01;;;;;;;3.10;2.40;;;;;;;-2.26;77.19;100048.28;4848549;29;20038;-65
2021/11/28 09:21:27;;;;;;;2.60;2.13;;;;;;;-2.28;77.52;100042.34;4865051;29;20049;-66
2021/11/28 09:26:41;;;;;;;3.30;2.33;;;;;;;-2.24;77.62;100053.41;4865551;29;20041;-68
2021/11/28 09:29:06;;;;;;;2.28;2.00;;;;;;;-2.16;76.64;100063.34;4849423;29;20283;-68
2021/11/28 09:31:32;;;;;;;5.17;2.37;;;;;;;-2.30;77.27;100052.03;4865979;29;20346;-68
2021/11/28 09:33:59;;;;;;;2.10;1.90;;;;;;;-2.31;77.18;100054.72;4862896;29;20097;-68
2021/11/28 09:36:27;;;;;;;2.67;2.40;;;;;;;-2.25;77.09;100075.19;4845786;29;20521;-68
2021/11/28 09:38:53;;;;;;;3.08;2.03;;;;;;;-2.35;77.59;100076.69;4862004;29;20365;-67
2021/11/28 09:41:19;;;;;;;2.30;2.10;;;;;;;-2.41;76.89;100064.91;4862177;29;20133;-68
2021/11/28 09:43:49;;;;;;;5.68;2.40;;;;;;;-2.22;77.31;100088.88;4862241;29;20532;-66
2021/11/28 09:46:20;;;;;;;3.42;1.98;;;;;;;-2.26;77.36;100074.38;4862073;29;20425;-69
2021/11/28 09:48:47;;;;;;;2.70;2.40;;;;;;;-2.17;76.32;100082.53;4845519;29;20037;-67
2021/11/28 09:51:13;;;;;;;2.30;1.95;;;;;;;-2.33;76.55;100067.00;4862087;29;20044;-70
2021/11/28 09:53:39;;;;;;;3.53;2.10;;;;;;;-2.29;77.13;100074.56;4861851;29;20042;-66
2021/11/28 09:56:06;;;;;;;2.60;2.13;;;;;;;-2.23;77.01;100084.59;4861987;29;20481;-66
2021/11/28 09:58:32;;;;;;;3.95;1.90;;;;;;;-2.31;77.26;100084.25;4861992;29;20190;-60
2021/11/28 10:01:00;;;;;;;5.10;2.67;;;;;;;-2.46;77.59;100076.56;4861314;29;20073;-62
2021/11/28 10:03:29;;;;;;;3.58;2.53;;;;;;;-2.33;76.92;100099.13;4861427;29;20054;-62
2021/11/28 10:05:56;;;;;;;6.27;2.13;;;;;;;-2.35;76.82;100100.16;4861455;29;20046;-64
2021/11/28 10:08:23;;;;;;;1.90;1.80;;;;;;;-2.37;76.79;100102.03;4861078;29;20037;-64
2021/11/28 10:11:16;;;;;;;3.17;2.28;;;;;;;-2.33;77.56;100106.97;4861100;29;20459;-61
2021/11/28 10:13:53;;;;;;;2.00;1.80;;;;;;;-2.42;76.61;100104.94;4861621;29;20105;-66
2021/11/28 10:16:19;;;;;;;2.00;1.83;;;;;;;-2.51;76.79;100100.31;4861708;29;20041;-64
2021/11/28 10:18:45;;;;;;;2.30;2.10;;;;;;;-2.44;77.33;100119.84;4844942;29;20038;-67
2021/11/28 10:21:11;;;;;;;2.20;2.00;;;;;;;-2.54;76.43;100092.69;4844847;29;20477;-64
2021/11/28 10:24:16;;;;;;;1.67;1.53;;;;;;;-2.87;76.80;100054.75;4861585;29;20181;-67
2021/11/28 10:26:54;;;;;;;2.08;1.75;;;;;;;-2.51;77.40;100111.59;4850373;29;20053;-71
2021/11/28 10:29:20;;;;;;;1.90;1.80;;;;;;;-2.61;78.37;100125.25;4861528;29;20049;-65
2021/11/28 10:31:50;;;;;;;2.13;1.92;;;;;;;-2.64;78.16;100120.25;4861190;29;20037;-67
2021/11/28 10:34:25;;;;;;;2.17;1.98;;;;;;;-2.78;78.27;100099.41;4861606;29;20097;-68
2021/11/28 10:37:12;;;;;;;2.75;1.92;;;;;;;-2.65;77.14;100123.78;4860998;29;20056;-67
2021/11/28 10:39:58;;;;;;;1.90;1.70;;;;;;;-2.70;77.17;100111.03;4860862;29;20148;-65
2021/11/28 10:42:25;;;;;;;2.58;2.38;;;;;;;-2.62;77.92;100141.84;4844830;29;20152;-67
2021/11/28 10:45:19;;;;;;;2.17;1.98;;;;;;;-2.60;78.66;100147.81;4844294;29;20426;-66
2021/11/28 10:47:52;;;;;;;6.88;2.60;;;;;;;-2.53;78.58;100143.91;4859135;29;20159;-65
2021/11/28 10:50:23;;;;;;;12.10;2.40;;;;;;;-2.54;78.09;100147.44;4861943;29;20045;-67
2021/11/28 10:53:02;;;;;;;2.10;1.80;;;;;;;-2.57;78.04;100153.69;4860949;29;20041;-65
2021/11/28 10:55:34;;;;;;;2.25;1.65;;;;;;;-2.66;78.34;100156.00;4860761;29;20044;-67
2021/11/28 10:58:12;;;;;;;2.40;2.20;;;;;;;-2.76;78.37;100144.47;4860611;29;20511;-66
2021/11/28 11:00:49;;;;;;;2.63;1.67;;;;;;;-2.79;77.83;100145.47;4860479;29;20076;-75
2021/11/28 11:03:29;;;;;;;2.28;2.08;;;;;;;-2.71;78.31;100160.66;4860298;29;20555;-67
2021/11/28 11:06:16;;;;;;;3.63;2.42;;;;;;;-2.63;78.60;100166.22;4860841;29;20080;-65
2021/11/28 11:08:42;;;;;;;3.55;2.55;;;;;;;-2.67;78.59;100164.75;4860991;29;20041;-63
2021/11/28 11:11:11;;;;;;;3.10;2.37;;;;;;;-2.70;78.49;100163.16;4860989;29;20125;-72
2021/11/28 11:13:56;;;;;;;2.97;1.70;;;;;;;-2.67;78.48;100183.00;4860124;29;20041;-68
2021/11/28 11:16:39;;;;;;;2.38;2.00;;;;;;;-2.92;79.05;100153.19;4860508;29;20441;-71
2021/11/28 11:19:26;;;;;;;2.40;2.15;;;;;;;-2.92;79.13;100129.75;4860177;29;20422;-69
2021/11/28 11:22:18;;;;;;;4.88;2.28;;;;;;;-2.73;79.48;100163.34;4860089;29;20045;-70
2021/11/28 11:24:51;;;;;;;2.55;2.05;;;;;;;-2.69;79.29;100161.41;4860232;29;20052;-67
2021/11/28 11:27:29;;;;;;;2.72;1.80;;;;;;;-2.70;78.62;100164.94;4843738;29;20037;-73
2021/11/28 11:30:04;;;;;;;2.53;2.25;;;;;;;-2.82;79.25;100141.31;4860100;29;20414;-67
2021/11/28 11:32:48;;;;;;;2.92;2.40;;;;;;;-2.66;79.41;100163.81;4860198;29;20064;-71
2021/11/28 11:35:23;;;;;;;2.78;2.40;;;;;;;-2.69;78.02;100148.34;4860115;29;20533;-70
2021/11/28 11:37:57;;;;;;;2.80;2.60;;;;;;;-2.54;78.11;100157.88;4859629;29;20060;-71